createdAt,value
2019-05-07T00:02:25.724Z,8.03
2019-05-07T00:04:54.172Z,7.25
2019-05-07T00:07:22.616Z,8.48
2019-05-07T00:09:52.581Z,8.30
2019-05-07T00:12:23.012Z,7.53
2019-05-07T00:14:58.931Z,8.48
2019-05-07T00:17:22.871Z,8.08
2019-05-07T00:19:52.599Z,10.30
2019-05-07T00:22:22.758Z,6.60
2019-05-07T00:24:52.115Z,8.68
2019-05-07T00:27:22.636Z,6.72
2019-05-07T00:29:52.106Z,8.43
2019-05-07T00:32:22.117Z,7.25
2019-05-07T00:34:55.448Z,6.60
2019-05-07T00:37:25.580Z,8.60
2019-05-07T00:40:07.801Z,8.93
2019-05-07T00:42:37.902Z,8.28
2019-05-07T00:45:20.229Z,8.70
2019-05-07T00:47:44.426Z,6.22
2019-05-07T00:50:17.221Z,5.60
2019-05-07T00:52:45.713Z,6.85
2019-05-07T00:55:14.165Z,8.03
2019-05-07T00:57:42.930Z,7.37
2019-05-07T01:00:13.053Z,9.95
2019-05-07T01:02:43.084Z,6.58
2019-05-07T01:05:12.287Z,8.05
2019-05-07T01:07:41.948Z,8.70
2019-05-07T01:10:12.603Z,9.85
2019-05-07T01:12:42.305Z,6.20
2019-05-07T01:15:12.835Z,6.05
2019-05-07T01:17:42.556Z,6.65
2019-05-07T01:20:12.570Z,8.83
2019-05-07T01:22:42.451Z,7.17
2019-05-07T01:25:12.870Z,7.17
2019-05-07T01:27:42.700Z,6.85
2019-05-07T01:30:12.916Z,6.95
2019-05-07T01:32:53.264Z,6.12
2019-05-07T01:35:23.615Z,9.18
2019-05-07T01:37:52.489Z,7.75
2019-05-07T01:40:22.816Z,7.03
2019-05-07T01:42:52.959Z,6.80
2019-05-07T01:45:22.082Z,7.42
2019-05-07T01:47:53.146Z,9.25
2019-05-07T01:50:22.715Z,7.15
2019-05-07T01:52:52.226Z,8.88
2019-05-07T01:55:22.572Z,7.95
2019-05-07T01:57:52.275Z,8.55
2019-05-07T02:00:22.439Z,5.90
2019-05-07T02:02:52.755Z,10.23
2019-05-07T02:05:39.095Z,5.35
2019-05-07T02:08:09.197Z,7.70
2019-05-07T02:10:42.787Z,6.17
2019-05-07T02:13:12.560Z,7.40
2019-05-07T02:15:42.756Z,6.60
2019-05-07T02:18:12.540Z,8.05
2019-05-07T02:20:42.587Z,6.58
2019-05-07T02:23:12.800Z,8.43
2019-05-07T02:25:42.013Z,6.10
2019-05-07T02:28:12.728Z,7.25
2019-05-07T02:30:44.111Z,7.10
2019-05-07T02:33:13.526Z,6.47
2019-05-07T02:35:43.940Z,5.87
2019-05-07T02:38:13.869Z,7.53
2019-05-07T02:40:44.190Z,7.90
2019-05-07T02:43:13.986Z,6.60
2019-05-07T02:45:50.113Z,9.15
2019-05-07T02:48:23.538Z,9.03
2019-05-07T02:50:53.918Z,7.60
2019-05-07T02:53:23.932Z,5.95
2019-05-07T02:55:59.480Z,6.70
2019-05-07T02:58:27.928Z,9.50
2019-05-07T03:00:56.482Z,8.90
2019-05-07T03:03:25.045Z,11.08
2019-05-07T03:05:53.912Z,7.58
2019-05-07T03:08:27.037Z,10.08
2019-05-07T03:10:53.226Z,9.33
2019-05-07T03:13:23.529Z,12.13
2019-05-07T03:15:53.949Z,10.65
2019-05-07T03:18:23.371Z,8.80
2019-05-07T03:20:54.125Z,8.03
2019-05-07T03:23:24.292Z,8.15
2019-05-07T03:25:54.846Z,7.97
2019-05-07T03:28:25.023Z,7.30
2019-05-07T03:31:05.390Z,9.80
2019-05-07T03:33:36.417Z,8.68
2019-05-07T03:36:07.298Z,10.25
2019-05-07T03:38:34.421Z,10.38
2019-05-07T03:41:03.913Z,9.18
2019-05-07T03:43:32.705Z,9.53
2019-05-07T03:46:03.725Z,9.08
2019-05-07T03:48:33.983Z,10.68
2019-05-07T03:51:03.638Z,8.18
2019-05-07T03:53:33.933Z,11.43
2019-05-07T03:56:04.163Z,10.75
2019-05-07T03:58:33.996Z,12.60
2019-05-07T04:01:04.375Z,6.97
2019-05-07T04:03:34.051Z,10.43
2019-05-07T04:06:03.965Z,7.45
2019-05-07T04:08:33.433Z,9.18
2019-05-07T04:11:03.516Z,7.85
2019-05-07T04:13:33.415Z,9.68
2019-05-07T04:16:04.090Z,8.95
2019-05-07T04:18:33.158Z,9.18
2019-05-07T04:21:03.676Z,8.03
2019-05-07T04:23:34.098Z,8.18
2019-05-07T04:26:09.606Z,10.38
2019-05-07T04:28:48.241Z,10.38
2019-05-07T04:31:16.713Z,9.50
2019-05-07T04:33:45.216Z,12.82
2019-05-07T04:36:24.028Z,9.68
2019-05-07T04:38:53.276Z,10.08
2019-05-07T04:41:23.443Z,9.15
2019-05-07T04:43:54.043Z,10.20
2019-05-07T04:46:23.602Z,6.70
2019-05-07T04:48:53.005Z,9.10
2019-05-07T04:51:23.481Z,9.05
2019-05-07T04:53:54.222Z,9.58
2019-05-07T04:56:23.804Z,6.55
2019-05-07T04:58:53.225Z,8.30
2019-05-07T05:01:23.738Z,7.37
2019-05-07T05:03:54.099Z,5.62
2019-05-07T05:06:24.096Z,7.25
2019-05-07T05:08:56.018Z,9.75
2019-05-07T05:11:23.845Z,6.60
2019-05-07T05:13:53.358Z,7.15
2019-05-07T05:16:26.229Z,6.28
2019-05-07T05:18:56.488Z,7.97
2019-05-07T05:21:26.787Z,7.03
2019-05-07T05:23:56.885Z,6.33
2019-05-07T05:26:25.332Z,7.92
2019-05-07T05:28:53.821Z,5.83
2019-05-07T05:31:22.430Z,6.03
2019-05-07T05:33:52.649Z,8.23
2019-05-07T05:36:22.211Z,5.50
2019-05-07T05:38:52.867Z,8.60
2019-05-07T05:41:22.628Z,6.62
2019-05-07T05:43:52.979Z,5.90
2019-05-07T05:46:23.325Z,10.98
2019-05-07T05:48:52.063Z,6.45
2019-05-07T05:51:38.683Z,5.47
2019-05-07T05:54:24.016Z,5.15
2019-05-07T05:57:02.943Z,9.48
2019-05-07T05:59:47.874Z,5.90
2019-05-07T06:02:09.098Z,7.45
2019-05-07T06:04:39.189Z,5.83
2019-05-07T06:07:17.986Z,6.65
2019-05-07T06:09:53.929Z,5.35
2019-05-07T06:12:38.850Z,6.42
2019-05-07T06:15:09.194Z,6.33
2019-05-07T06:17:42.620Z,7.10
2019-05-07T06:20:32.075Z,8.00
2019-05-07T06:23:22.320Z,7.62
2019-05-07T06:25:52.334Z,9.15
2019-05-07T06:28:22.357Z,9.03
2019-05-07T06:30:52.716Z,7.17
2019-05-07T06:33:22.996Z,10.72
2019-05-07T06:35:52.086Z,13.32
2019-05-07T06:38:22.147Z,12.70
2019-05-07T06:40:52.628Z,13.62
2019-05-07T06:43:37.917Z,11.83
2019-05-07T06:46:12.565Z,12.53
2019-05-07T06:48:46.251Z,10.28
2019-05-07T06:51:17.659Z,11.60
2019-05-07T06:53:46.296Z,12.47
2019-05-07T06:56:14.753Z,9.28
2019-05-07T06:58:47.579Z,13.32
2019-05-07T07:01:35.045Z,13.32
2019-05-07T07:04:05.192Z,11.68
2019-05-07T07:06:35.328Z,12.75
2019-05-07T07:09:19.162Z,15.45
2019-05-07T07:11:49.444Z,15.18
2019-05-07T07:14:18.285Z,12.75
2019-05-07T07:16:46.730Z,11.40
2019-05-07T07:19:18.135Z,13.25
2019-05-07T07:21:46.622Z,11.83
2019-05-07T07:24:15.090Z,18.25
2019-05-07T07:26:43.527Z,13.68
2019-05-07T07:29:13.632Z,15.23
2019-05-07T07:31:46.555Z,14.25
2019-05-07T07:34:15.026Z,13.35
2019-05-07T07:36:45.133Z,14.55
2019-05-07T07:39:13.704Z,13.78
2019-05-07T07:41:49.587Z,12.82
2019-05-07T07:44:18.075Z,13.30
2019-05-07T07:46:46.593Z,13.28
2019-05-07T07:49:15.370Z,13.40
2019-05-07T07:51:45.607Z,12.73
2019-05-07T07:54:14.149Z,10.03
2019-05-07T07:56:52.309Z,11.18
2019-05-07T07:59:32.717Z,9.15
2019-05-07T08:02:25.071Z,12.95
2019-05-07T08:04:53.582Z,11.28
2019-05-07T08:07:22.896Z,10.68
2019-05-07T08:09:52.101Z,10.05
2019-05-07T08:12:22.126Z,8.90
2019-05-07T08:14:51.894Z,9.55
2019-05-07T08:17:22.406Z,10.53
2019-05-07T08:19:52.006Z,10.90
2019-05-07T08:22:32.811Z,11.57
2019-05-07T08:25:12.370Z,10.82
2019-05-07T08:27:53.127Z,12.63
2019-05-07T08:30:23.442Z,7.62
2019-05-07T08:32:59.520Z,8.83
2019-05-07T08:35:35.473Z,9.63
2019-05-07T08:38:03.993Z,7.90
2019-05-07T08:40:32.693Z,8.53
2019-05-07T08:43:03.231Z,6.83
2019-05-07T08:45:49.196Z,9.93
2019-05-07T08:48:34.351Z,8.68
2019-05-07T08:51:02.874Z,8.80
2019-05-07T08:53:32.820Z,10.20
2019-05-07T08:56:03.341Z,8.30
2019-05-07T08:58:31.925Z,7.25
2019-05-07T09:01:02.891Z,12.75
2019-05-07T09:03:43.157Z,11.90
2019-05-07T09:06:13.562Z,7.33
2019-05-07T09:08:43.673Z,10.10
2019-05-07T09:11:13.376Z,9.63
2019-05-07T09:13:42.143Z,8.65
2019-05-07T09:16:12.948Z,8.50
2019-05-07T09:18:42.219Z,8.05
2019-05-07T09:21:12.619Z,8.10
2019-05-07T09:23:42.412Z,9.30
2019-05-07T09:26:13.085Z,7.53
2019-05-07T09:28:48.005Z,7.90
2019-05-07T09:31:27.654Z,7.67
2019-05-07T09:33:57.817Z,7.78
2019-05-07T09:36:27.996Z,7.10
2019-05-07T09:38:59.240Z,9.88
2019-05-07T09:41:26.663Z,8.90
2019-05-07T09:43:56.939Z,9.48
2019-05-07T09:46:25.834Z,7.22
2019-05-07T09:48:54.284Z,8.70
2019-05-07T09:51:24.300Z,6.83
2019-05-07T09:53:52.771Z,8.18
2019-05-07T09:56:22.894Z,8.20
2019-05-07T09:58:53.023Z,9.15
2019-05-07T10:01:23.687Z,8.78
2019-05-07T10:03:52.643Z,11.18
2019-05-07T10:06:22.870Z,8.85
2019-05-07T10:08:52.387Z,7.92
2019-05-07T10:11:28.629Z,8.60
2019-05-07T10:14:04.500Z,8.65
2019-05-07T10:16:37.159Z,7.58
2019-05-07T10:19:05.606Z,7.47
2019-05-07T10:21:35.801Z,8.18
2019-05-07T10:24:13.091Z,10.78
2019-05-07T10:26:42.842Z,9.80
2019-05-07T10:29:12.604Z,8.58
2019-05-07T10:31:42.363Z,7.92
2019-05-07T10:34:12.317Z,9.33
2019-05-07T10:36:42.202Z,7.47
2019-05-07T10:39:12.917Z,9.70
2019-05-07T10:41:42.489Z,8.63
2019-05-07T10:44:15.136Z,11.08
2019-05-07T10:49:37.495Z,13.80
2019-05-07T10:52:05.962Z,8.88
2019-05-07T10:54:37.463Z,7.90
2019-05-07T10:57:05.919Z,9.85
2019-05-07T10:59:34.377Z,8.83
2019-05-07T11:02:04.475Z,8.60
2019-05-07T11:04:42.543Z,12.63
2019-05-07T11:07:03.195Z,13.50
2019-05-07T11:09:32.789Z,13.53
2019-05-07T11:12:02.560Z,9.00
2019-05-07T11:14:32.162Z,8.13
2019-05-07T11:17:08.145Z,12.47
2019-05-07T11:19:36.605Z,7.85
2019-05-07T11:22:05.137Z,8.40
2019-05-07T11:24:33.587Z,7.35
2019-05-07T11:27:02.453Z,11.38
2019-05-07T11:29:33.034Z,7.17
2019-05-07T11:32:01.419Z,8.60
2019-05-07T11:34:32.740Z,14.28
2019-05-07T11:37:02.464Z,7.85
2019-05-07T11:39:33.111Z,11.03
2019-05-07T11:42:18.410Z,9.88
2019-05-07T11:44:46.864Z,7.60
2019-05-07T11:47:23.034Z,6.75
2019-05-07T11:50:11.967Z,10.80
2019-05-07T11:52:42.848Z,10.53
2019-05-07T11:55:12.117Z,10.50
2019-05-07T11:57:44.181Z,8.65
2019-05-07T12:00:13.247Z,8.30
2019-05-07T12:02:42.367Z,7.67
2019-05-07T12:05:12.122Z,7.85
2019-05-07T12:07:41.947Z,8.00
2019-05-07T12:10:12.170Z,7.25
2019-05-07T12:12:42.453Z,7.45
2019-05-07T12:15:12.473Z,11.48
2019-05-07T12:17:42.866Z,8.45
2019-05-07T12:20:12.975Z,8.28
2019-05-07T12:22:51.993Z,7.58
2019-05-07T12:25:21.995Z,7.78
2019-05-07T12:27:52.692Z,9.25
2019-05-07T12:30:43.206Z,8.73
2019-05-07T12:33:22.331Z,8.45
2019-05-07T12:35:52.458Z,7.35
2019-05-07T12:38:21.903Z,7.50
2019-05-07T12:40:52.432Z,9.15
2019-05-07T12:43:20.983Z,8.95
2019-05-07T12:45:49.454Z,11.12
2019-05-07T12:48:17.923Z,9.28
2019-05-07T12:50:46.384Z,17.57
2019-05-07T12:53:32.408Z,11.93
2019-05-07T12:56:05.313Z,10.18
2019-05-07T12:58:33.768Z,8.60
2019-05-07T13:01:03.848Z,8.90
2019-05-07T13:03:36.729Z,8.43
2019-05-07T13:06:05.318Z,9.63
2019-05-07T13:08:33.783Z,10.80
2019-05-07T13:11:03.062Z,9.83
2019-05-07T13:13:32.127Z,9.85
2019-05-07T13:16:02.669Z,7.70
2019-05-07T13:18:31.592Z,9.43
2019-05-07T13:21:02.211Z,9.53
2019-05-07T13:23:31.846Z,10.15
2019-05-07T13:26:02.587Z,8.23
2019-05-07T13:28:30.757Z,7.85
2019-05-07T13:30:59.219Z,8.98
2019-05-07T13:33:27.944Z,10.75
2019-05-07T13:35:56.481Z,9.13
2019-05-07T13:38:26.716Z,8.48
2019-05-07T13:41:02.617Z,7.20
2019-05-07T13:43:38.872Z,9.05
2019-05-07T13:46:12.218Z,10.63
2019-05-07T13:48:45.508Z,8.98
2019-05-07T13:51:12.929Z,9.50
2019-05-07T13:53:42.805Z,7.92
2019-05-07T13:56:12.862Z,8.05
2019-05-07T13:58:42.872Z,9.00
2019-05-07T14:01:13.165Z,7.95
2019-05-07T14:03:49.261Z,9.20
2019-05-07T14:06:18.482Z,8.50
2019-05-07T14:08:46.999Z,10.88
2019-05-07T14:11:15.537Z,8.98
2019-05-07T14:13:43.992Z,8.30
2019-05-07T14:16:13.871Z,10.65
2019-05-07T14:18:42.391Z,8.50
2019-05-07T14:21:12.975Z,9.83
2019-05-07T14:23:42.771Z,10.88
2019-05-07T14:26:11.215Z,10.00
2019-05-07T14:28:39.661Z,10.60
2019-05-07T14:31:08.125Z,9.18
2019-05-07T14:33:54.208Z,14.87
2019-05-07T14:36:31.997Z,12.47
2019-05-07T14:39:02.342Z,11.43
2019-05-07T14:41:32.513Z,18.40
2019-05-07T14:44:08.192Z,10.72
2019-05-07T14:46:47.260Z,10.45
2019-05-07T14:49:07.115Z,8.65
2019-05-07T14:51:35.571Z,13.15
2019-05-07T14:54:04.199Z,10.72
2019-05-07T14:56:32.822Z,7.90
2019-05-07T14:59:02.278Z,10.05
2019-05-07T15:01:31.252Z,11.48
2019-05-07T15:04:02.157Z,10.05
2019-05-07T15:06:32.380Z,9.87
2019-05-07T15:09:00.418Z,9.38
2019-05-07T15:11:28.939Z,12.47
2019-05-07T15:13:57.473Z,10.98
2019-05-07T15:16:25.919Z,9.63
2019-05-07T15:18:56.425Z,11.70
2019-05-07T15:21:24.951Z,11.43
2019-05-07T15:23:54.616Z,10.30
2019-05-07T15:26:23.241Z,11.75
2019-05-07T15:28:53.527Z,8.13
2019-05-07T15:31:26.569Z,9.03
2019-05-07T15:33:55.050Z,10.03
2019-05-07T15:36:23.492Z,9.88
2019-05-07T15:38:52.247Z,9.48
2019-05-07T15:41:22.689Z,8.78
2019-05-07T15:43:52.182Z,11.85
2019-05-07T15:46:22.769Z,8.80
2019-05-07T15:48:52.644Z,10.80
2019-05-07T15:51:22.584Z,11.48
2019-05-07T15:53:55.334Z,14.03
2019-05-07T15:56:23.881Z,11.93
2019-05-07T15:58:56.908Z,8.40
2019-05-07T16:01:29.929Z,10.70
2019-05-07T16:04:02.859Z,11.45
2019-05-07T16:06:32.321Z,9.23
2019-05-07T16:09:04.117Z,10.65
2019-05-07T16:11:33.384Z,11.60
2019-05-07T16:14:06.288Z,11.10
2019-05-07T16:16:36.399Z,9.20
2019-05-07T16:19:11.847Z,11.93
2019-05-07T16:21:42.377Z,11.00
2019-05-07T16:24:12.176Z,11.83
2019-05-07T16:26:41.899Z,15.45
2019-05-07T16:29:12.971Z,12.20
2019-05-07T16:31:40.837Z,12.07
2019-05-07T16:34:09.295Z,10.82
2019-05-07T16:36:37.748Z,11.25
2019-05-07T16:39:07.409Z,9.53
2019-05-07T16:41:35.956Z,11.75
2019-05-07T16:44:05.050Z,10.48
2019-05-07T16:46:33.506Z,11.93
2019-05-07T16:49:02.400Z,10.45
2019-05-07T16:51:33.012Z,11.15
2019-05-07T16:54:03.235Z,10.50
2019-05-07T16:56:33.345Z,10.55
2019-05-07T16:59:08.828Z,10.85
2019-05-07T17:01:42.386Z,9.65
2019-05-07T17:04:12.151Z,11.60
2019-05-07T17:06:42.116Z,8.90
2019-05-07T17:09:13.446Z,10.25
2019-05-07T17:11:43.650Z,14.18
2019-05-07T17:14:13.017Z,12.88
2019-05-07T17:16:41.713Z,11.70
2019-05-07T17:19:11.863Z,10.72
2019-05-07T17:21:40.226Z,11.43
2019-05-07T17:24:08.692Z,11.60
2019-05-07T17:26:37.246Z,11.95
2019-05-07T17:29:05.791Z,14.53
2019-05-07T17:31:34.299Z,14.75
2019-05-07T17:34:02.784Z,13.48
2019-05-07T17:36:33.116Z,12.85
2019-05-07T17:39:02.760Z,14.00
2019-05-07T17:41:32.317Z,11.22
2019-05-07T17:44:02.695Z,12.13
2019-05-07T17:46:32.333Z,13.90
2019-05-07T17:49:02.515Z,15.88
2019-05-07T17:51:43.101Z,15.48
2019-05-07T17:54:13.069Z,19.07
2019-05-07T17:56:43.033Z,14.70
2019-05-07T17:59:12.560Z,18.12
2019-05-07T18:01:52.953Z,16.87
2019-05-07T18:04:21.749Z,12.45
2019-05-07T18:06:52.117Z,19.65
2019-05-07T18:09:23.367Z,12.80
2019-05-07T18:11:52.240Z,14.33
2019-05-07T18:14:22.804Z,16.85
2019-05-07T18:16:58.857Z,13.55
2019-05-07T18:19:28.970Z,18.07
2019-05-07T18:21:57.477Z,18.42
2019-05-07T18:24:25.960Z,14.35
2019-05-07T18:26:54.484Z,15.13
2019-05-07T18:29:22.948Z,13.20
2019-05-07T18:31:59.061Z,13.45
2019-05-07T18:34:27.781Z,16.93
2019-05-07T18:36:56.295Z,13.10
2019-05-07T18:39:26.398Z,12.88
2019-05-07T18:41:54.940Z,14.05
2019-05-07T18:44:23.414Z,16.67
2019-05-07T18:46:52.874Z,13.15
2019-05-07T18:49:21.613Z,12.05
2019-05-07T18:51:52.017Z,15.80
2019-05-07T18:54:30.509Z,14.65
2019-05-07T18:56:53.007Z,14.58
2019-05-07T18:59:31.654Z,17.92
2019-05-07T19:01:59.629Z,15.08
2019-05-07T19:04:30.197Z,13.85
2019-05-07T19:06:59.875Z,29.35
2019-05-07T19:09:31.961Z,15.10
2019-05-07T19:12:03.525Z,16.02
2019-05-07T19:14:33.297Z,13.48
2019-05-07T19:17:03.569Z,17.10
2019-05-07T19:19:34.429Z,20.45
2019-05-07T19:22:02.923Z,19.60
2019-05-07T19:24:44.335Z,16.95
2019-05-07T19:27:02.176Z,16.50
2019-05-07T19:29:32.609Z,18.12
2019-05-07T19:32:03.050Z,14.53
2019-05-07T19:34:32.471Z,15.95
2019-05-07T19:37:03.936Z,15.72
2019-05-07T19:39:32.630Z,18.42
2019-05-07T19:42:02.589Z,15.72
2019-05-07T19:44:31.410Z,14.98
2019-05-07T19:47:04.497Z,13.43
2019-05-07T19:49:33.004Z,12.15
2019-05-07T19:52:01.843Z,14.63
2019-05-07T19:54:32.344Z,15.15
2019-05-07T19:57:02.811Z,12.47
2019-05-07T19:59:32.595Z,14.07
2019-05-07T20:02:03.118Z,12.33
2019-05-07T20:04:32.120Z,16.93
2019-05-07T20:07:02.777Z,11.25
2019-05-07T20:09:33.070Z,13.75
2019-05-07T20:12:02.669Z,14.98
2019-05-07T20:14:33.055Z,10.58
2019-05-07T20:17:01.848Z,21.75
2019-05-07T20:19:32.672Z,14.00
2019-05-07T20:22:02.126Z,13.83
2019-05-07T20:24:32.952Z,15.08
2019-05-07T20:27:03.087Z,14.33
2019-05-07T20:29:32.829Z,15.88
2019-05-07T20:32:01.363Z,13.05
2019-05-07T20:34:29.871Z,14.10
2019-05-07T20:36:58.356Z,16.12
2019-05-07T20:39:26.810Z,13.95
2019-05-07T20:41:55.360Z,14.28
2019-05-07T20:44:26.874Z,14.33
2019-05-07T20:46:55.567Z,16.48
2019-05-07T20:49:24.259Z,18.32
2019-05-07T20:51:52.800Z,15.48
2019-05-07T20:54:23.129Z,16.65
2019-05-07T20:56:53.292Z,14.23
2019-05-07T20:59:23.312Z,14.45
2019-05-07T21:01:52.635Z,16.57
2019-05-07T21:04:22.246Z,14.93
2019-05-07T21:06:52.510Z,15.45
2019-05-07T21:09:22.060Z,14.93
2019-05-07T21:11:50.905Z,14.78
2019-05-07T21:14:19.463Z,20.40
2019-05-07T21:16:47.999Z,13.10
2019-05-07T21:19:16.523Z,13.32
2019-05-07T21:21:46.517Z,14.15
2019-05-07T21:24:14.978Z,16.40
2019-05-07T21:26:43.435Z,12.45
2019-05-07T21:29:13.725Z,12.98
2019-05-07T21:31:43.150Z,19.73
2019-05-07T21:34:12.556Z,17.42
2019-05-07T21:36:43.178Z,15.25
2019-05-07T21:39:12.941Z,12.23
2019-05-07T21:41:42.656Z,14.33
2019-05-07T21:44:11.371Z,16.17
2019-05-07T21:46:39.838Z,12.18
2019-05-07T21:49:08.363Z,12.07
2019-05-07T21:51:36.918Z,14.13
2019-05-07T21:54:21.085Z,13.53
2019-05-07T21:57:13.839Z,19.00
2019-05-07T21:59:43.276Z,16.50
2019-05-07T22:02:13.604Z,18.23
2019-05-07T22:04:42.259Z,15.98
2019-05-07T22:07:12.229Z,18.57
2019-05-07T22:09:41.029Z,14.83
2019-05-07T22:12:11.954Z,16.23
2019-05-07T22:14:39.659Z,16.12
2019-05-07T22:17:08.112Z,14.20
2019-05-07T22:19:36.567Z,12.98
2019-05-07T22:22:06.635Z,17.77
2019-05-07T22:24:35.081Z,16.17
2019-05-07T22:27:04.268Z,14.05
2019-05-07T22:29:34.564Z,12.47
2019-05-07T22:32:11.855Z,16.80
2019-05-07T22:35:02.769Z,13.50
2019-05-07T22:37:32.442Z,14.30
2019-05-07T22:40:02.753Z,14.30
2019-05-07T22:42:32.711Z,12.78
2019-05-07T22:45:02.814Z,13.20
2019-05-07T22:47:32.643Z,13.48
2019-05-07T22:50:02.794Z,12.33
2019-05-07T22:52:32.682Z,15.43
2019-05-07T22:55:03.801Z,11.63
2019-05-07T22:57:33.954Z,12.43
2019-05-07T23:00:04.585Z,11.78
2019-05-07T23:02:33.008Z,13.20
2019-05-07T23:05:02.899Z,15.85
2019-05-07T23:07:36.095Z,16.42
2019-05-07T23:10:05.439Z,14.07
2019-05-07T23:12:33.958Z,13.40
2019-05-07T23:15:02.846Z,11.05
2019-05-07T23:17:32.647Z,16.05
2019-05-07T23:20:01.313Z,13.98
2019-05-07T23:22:32.246Z,12.50
2019-05-07T23:25:00.035Z,13.58
2019-05-07T23:27:28.569Z,15.53
2019-05-07T23:29:57.092Z,13.60
2019-05-07T23:32:25.569Z,12.20
2019-05-07T23:34:54.017Z,12.55
2019-05-07T23:37:22.657Z,12.73
2019-05-07T23:39:55.904Z,11.95
2019-05-07T23:42:26.039Z,12.73
2019-05-07T23:44:54.599Z,13.70
2019-05-07T23:47:24.756Z,12.58
2019-05-07T23:49:53.235Z,15.98
2019-05-07T23:52:22.533Z,11.08
2019-05-07T23:54:52.203Z,12.20
2019-05-07T23:57:23.132Z,13.45
2019-05-07T23:59:52.972Z,13.68
